Time,TemperatureF,DewpointF,PressureIn,WindDirection,WindDirectionDegrees,WindSpeedMPH,WindSpeedGustMPH,Humidity,HourlyPrecipIn,Conditions,Clouds,dailyrainin,SoftwareType,DateUTC
2013-06-13 00:00:00,77.3,65.0,29.65,NNE,25,4.0,12.0,67,0.00,,,0.00,weatherlink.com 1.10,2013-06-13 04:00:00,
2013-06-13 00:15:00,70.8,65.0,29.65,West,281,4.0,14.0,83,0.06,,,0.06,weatherlink.com 1.10,2013-06-13 04:15:00,
2013-06-13 00:30:00,67.2,65.0,29.63,NE,35,6.0,7.0,92,0.16,,,0.16,weatherlink.com 1.10,2013-06-13 04:30:00,
2013-06-13 00:45:00,66.9,65.0,29.62,NNE,24,7.0,15.0,94,0.26,,,0.26,weatherlink.com 1.10,2013-06-13 04:45:00,
2013-06-13 01:00:00,67.2,66.0,29.62,North,8,3.0,11.0,94,0.33,,,0.33,weatherlink.com 1.10,2013-06-13 05:00:00,
2013-06-13 01:15:00,67.6,66.0,29.61,West,271,0.0,13.0,95,0.31,,,0.40,weatherlink.com 1.10,2013-06-13 05:15:00,
2013-06-13 01:31:00,67.6,66.0,29.59,NNW,331,0.0,3.0,95,0.51,,,0.67,weatherlink.com 1.10,2013-06-13 05:31:00,
2013-06-13 01:46:00,68.3,67.0,29.58,SE,146,0.0,6.0,96,0.65,,,0.91,weatherlink.com 1.10,2013-06-13 05:46:00,
2013-06-13 02:01:00,68.6,68.0,29.56,NNE,30,0.0,4.0,96,0.59,,,0.92,weatherlink.com 1.10,2013-06-13 06:01:00,
2013-06-13 02:16:00,68.0,67.0,29.57,NNE,18,1.0,7.0,95,0.59,,,0.99,weatherlink.com 1.10,2013-06-13 06:16:00,
2013-06-13 02:31:00,67.4,66.0,29.57,ENE,70,2.0,4.0,95,0.43,,,1.10,weatherlink.com 1.10,2013-06-13 06:31:00,
2013-06-13 02:46:00,67.6,67.0,29.59,SW,235,0.0,1.0,96,0.22,,,1.13,weatherlink.com 1.10,2013-06-13 06:46:00,
2013-06-13 03:01:00,68.0,67.0,29.61,North,359,6.0,10.0,96,0.31,,,1.23,weatherlink.com 1.10,2013-06-13 07:01:00,
2013-06-13 03:16:00,68.3,67.0,29.57,West,270,0.0,6.0,95,0.64,,,1.64,weatherlink.com 1.10,2013-06-13 07:16:00,
2013-06-13 03:31:00,67.4,66.0,29.59,SE,146,0.0,2.0,95,0.54,,,1.64,weatherlink.com 1.10,2013-06-13 07:31:00,
2013-06-13 03:46:00,66.9,66.0,29.57,SSE,160,0.0,1.0,95,0.51,,,1.64,weatherlink.com 1.10,2013-06-13 07:46:00,
2013-06-13 04:01:00,66.8,66.0,29.57,West,267,0.0,0.0,96,0.40,,,1.64,weatherlink.com 1.10,2013-06-13 08:01:00,
2013-06-13 04:16:00,66.6,66.0,29.57,SW,225,0.0,1.0,96,0.00,,,1.64,weatherlink.com 1.10,2013-06-13 08:16:00,
2013-06-13 04:31:00,66.5,65.0,29.58,WNW,285,0.0,1.0,96,0.00,,,1.64,weatherlink.com 1.10,2013-06-13 08:31:00,
2013-06-13 04:46:00,66.6,66.0,29.56,WNW,287,0.0,1.0,97,0.00,,,1.64,weatherlink.com 1.10,2013-06-13 08:46:00,
2013-06-13 05:01:00,66.7,66.0,29.56,WSW,248,0.0,1.0,97,0.00,,,1.64,weatherlink.com 1.10,2013-06-13 09:01:00,
2013-06-13 05:16:00,66.7,66.0,29.56,SSW,207,0.0,2.0,97,0.00,,,1.64,weatherlink.com 1.10,2013-06-13 09:16:00,
2013-06-13 05:31:00,66.7,66.0,29.56,NW,319,0.0,2.0,96,0.00,,,1.64,weatherlink.com 1.10,2013-06-13 09:31:00,
2013-06-13 05:46:00,66.7,66.0,29.57,NW,316,0.0,0.0,97,0.00,,,1.64,weatherlink.com 1.10,2013-06-13 09:46:00,
2013-06-13 06:01:00,66.8,66.0,29.57,WNW,283,0.0,2.0,96,0.01,,,1.65,weatherlink.com 1.10,2013-06-13 10:01:00,
2013-06-13 06:16:00,66.3,65.0,29.56,WNW,283,0.0,0.0,96,0.01,,,1.65,weatherlink.com 1.10,2013-06-13 10:16:00,
2013-06-13 06:31:00,66.0,65.0,29.57,WNW,283,0.0,0.0,96,0.01,,,1.65,weatherlink.com 1.10,2013-06-13 10:31:00,
2013-06-13 06:46:00,66.8,66.0,29.58,North,1,0.0,3.0,97,0.01,,,1.65,weatherlink.com 1.10,2013-06-13 10:46:00,
2013-06-13 07:01:00,67.3,67.0,29.60,NE,49,0.0,4.0,97,0.00,,,1.65,weatherlink.com 1.10,2013-06-13 11:01:00,
2013-06-13 07:16:00,67.5,67.0,29.63,NNW,338,1.0,6.0,97,0.02,,,1.67,weatherlink.com 1.10,2013-06-13 11:16:00,
2013-06-13 07:31:00,67.6,67.0,29.61,NE,47,0.0,4.0,97,0.04,,,1.69,weatherlink.com 1.10,2013-06-13 11:31:00,
2013-06-13 07:46:00,67.5,67.0,29.62,NNE,18,1.0,5.0,97,0.06,,,1.71,weatherlink.com 1.10,2013-06-13 11:46:00,
2013-06-13 08:01:00,66.9,66.0,29.62,WNW,302,5.0,8.0,96,0.12,,,1.77,weatherlink.com 1.10,2013-06-13 12:01:00,
2013-06-13 08:16:00,66.3,65.0,29.64,NE,50,1.0,7.0,96,0.12,,,1.79,weatherlink.com 1.10,2013-06-13 12:16:00,
2013-06-13 08:31:00,66.2,65.0,29.64,NE,40,1.0,7.0,96,0.11,,,1.80,weatherlink.com 1.10,2013-06-13 12:31:00,
2013-06-13 08:46:00,66.0,65.0,29.65,West,271,1.0,7.0,96,0.10,,,1.81,weatherlink.com 1.10,2013-06-13 12:46:00,
2013-06-13 09:01:00,65.9,65.0,29.65,NW,319,3.0,6.0,96,0.04,,,1.81,weatherlink.com 1.10,2013-06-13 13:01:00,
2013-06-13 09:16:00,66.4,65.0,29.65,North,9,1.0,7.0,96,0.02,,,1.81,weatherlink.com 1.10,2013-06-13 13:16:00,
2013-06-13 09:31:00,67.4,66.0,29.66,NE,41,2.0,7.0,96,0.01,,,1.81,weatherlink.com 1.10,2013-06-13 13:31:00,
2013-06-13 09:46:00,67.7,66.0,29.67,WNW,295,1.0,7.0,93,0.00,,,1.81,weatherlink.com 1.10,2013-06-13 13:46:00,
2013-06-13 10:01:00,68.8,66.0,29.68,ESE,102,3.0,5.0,92,0.00,,,1.81,weatherlink.com 1.10,2013-06-13 14:01:00,
2013-06-13 10:16:00,68.4,66.0,29.69,WNW,290,0.0,5.0,91,0.00,,,1.81,weatherlink.com 1.10,2013-06-13 14:16:00,
2013-06-13 10:31:00,68.5,66.0,29.70,NNE,12,1.0,5.0,92,0.00,,,1.81,weatherlink.com 1.10,2013-06-13 14:31:00,
2013-06-13 10:46:00,68.0,65.0,29.71,NNW,345,3.0,7.0,91,0.00,,,1.81,weatherlink.com 1.10,2013-06-13 14:46:00,
2013-06-13 11:01:00,67.7,65.0,29.72,ENE,66,2.0,8.0,91,0.00,,,1.81,weatherlink.com 1.10,2013-06-13 15:01:00,
2013-06-13 11:16:00,67.0,65.0,29.73,NE,40,3.0,8.0,93,0.00,,,1.81,weatherlink.com 1.10,2013-06-13 15:16:00,
2013-06-13 11:31:00,66.9,65.0,29.74,ENE,58,1.0,6.0,93,0.00,,,1.81,weatherlink.com 1.10,2013-06-13 15:31:00,
2013-06-13 11:46:00,67.9,64.0,29.75,NNW,334,5.0,7.0,88,0.01,,,1.82,weatherlink.com 1.10,2013-06-13 15:46:00,
2013-06-13 12:01:00,69.4,63.0,29.76,North,1,1.0,6.0,81,0.01,,,1.82,weatherlink.com 1.10,2013-06-13 16:01:00,
2013-06-13 12:16:00,70.7,62.0,29.76,NE,47,4.0,9.0,74,0.01,,,1.82,weatherlink.com 1.10,2013-06-13 16:16:00,
2013-06-13 12:31:00,72.1,62.0,29.76,ENE,58,1.0,8.0,70,0.01,,,1.82,weatherlink.com 1.10,2013-06-13 16:31:00,
2013-06-13 12:46:00,73.1,63.0,29.77,NNW,333,3.0,6.0,70,0.00,,,1.82,weatherlink.com 1.10,2013-06-13 16:46:00,
2013-06-13 13:02:00,74.2,62.0,29.78,West,273,1.0,8.0,65,0.00,,,1.82,weatherlink.com 1.10,2013-06-13 17:02:00,
2013-06-13 13:17:00,74.4,62.0,29.77,SW,228,1.0,6.0,66,0.00,,,1.82,weatherlink.com 1.10,2013-06-13 17:17:00,
2013-06-13 13:32:00,75.0,61.0,29.77,NNW,335,2.0,12.0,61,0.00,,,1.82,weatherlink.com 1.10,2013-06-13 17:32:00,
2013-06-13 13:47:00,75.6,63.0,29.78,North,5,3.0,13.0,64,0.00,,,1.82,weatherlink.com 1.10,2013-06-13 17:47:00,
2013-06-13 14:02:00,76.2,62.0,29.79,WSW,238,8.0,9.0,61,0.00,,,1.82,weatherlink.com 1.10,2013-06-13 18:02:00,
2013-06-13 14:17:00,76.1,61.0,29.79,NE,42,4.0,8.0,60,0.00,,,1.82,weatherlink.com 1.10,2013-06-13 18:17:00,
2013-06-13 14:32:00,76.2,61.0,29.80,NW,323,3.0,10.0,59,0.00,,,1.82,weatherlink.com 1.10,2013-06-13 18:32:00,
2013-06-13 14:47:00,76.9,61.0,29.80,NNE,19,1.0,7.0,59,0.00,,,1.82,weatherlink.com 1.10,2013-06-13 18:47:00,
2013-06-13 15:02:00,76.1,60.0,29.80,North,356,3.0,10.0,58,0.00,,,1.82,weatherlink.com 1.10,2013-06-13 19:02:00,
2013-06-13 15:17:00,77.1,62.0,29.80,NNW,331,4.0,9.0,59,0.00,,,1.82,weatherlink.com 1.10,2013-06-13 19:17:00,
2013-06-13 15:32:00,77.3,61.0,29.80,NE,50,2.0,15.0,58,0.00,,,1.82,weatherlink.com 1.10,2013-06-13 19:32:00,
2013-06-13 15:47:00,77.6,60.0,29.80,WSW,239,3.0,15.0,55,0.00,,,1.82,weatherlink.com 1.10,2013-06-13 19:47:00,
2013-06-13 16:02:00,77.8,61.0,29.81,ENE,76,3.0,10.0,57,0.00,,,1.82,weatherlink.com 1.10,2013-06-13 20:02:00,
2013-06-13 16:17:00,76.9,60.0,29.81,ENE,69,4.0,11.0,57,0.00,,,1.82,weatherlink.com 1.10,2013-06-13 20:17:00,
2013-06-13 16:32:00,77.8,60.0,29.81,NW,319,5.0,14.0,54,0.00,,,1.82,weatherlink.com 1.10,2013-06-13 20:32:00,
2013-06-13 16:47:00,77.0,59.0,29.82,ENE,69,2.0,12.0,54,0.00,,,1.82,weatherlink.com 1.10,2013-06-13 20:47:00,
2013-06-13 17:02:00,77.2,59.0,29.82,WSW,239,6.0,12.0,53,0.00,,,1.82,weatherlink.com 1.10,2013-06-13 21:02:00,
2013-06-13 17:17:00,76.9,57.0,29.82,NE,37,4.0,17.0,51,0.00,,,1.82,weatherlink.com 1.10,2013-06-13 21:17:00,
2013-06-13 17:32:00,77.2,59.0,29.82,SW,236,5.0,11.0,53,0.00,,,1.82,weatherlink.com 1.10,2013-06-13 21:32:00,
2013-06-13 17:47:00,76.8,59.0,29.83,WSW,253,6.0,12.0,54,0.00,,,1.82,weatherlink.com 1.10,2013-06-13 21:47:00,
2013-06-13 18:02:00,76.8,59.0,29.83,NE,43,2.0,10.0,55,0.00,,,1.82,weatherlink.com 1.10,2013-06-13 22:02:00,
2013-06-13 18:17:00,76.6,58.0,29.83,NNE,13,3.0,12.0,53,0.00,,,1.82,weatherlink.com 1.10,2013-06-13 22:17:00,
2013-06-13 18:32:00,76.6,59.0,29.83,West,265,7.0,11.0,54,0.00,,,1.82,weatherlink.com 1.10,2013-06-13 22:32:00,
2013-06-13 18:47:00,75.3,57.0,29.84,North,356,3.0,9.0,54,0.00,,,1.82,weatherlink.com 1.10,2013-06-13 22:47:00,
2013-06-13 19:02:00,74.4,58.0,29.84,WNW,290,4.0,14.0,56,0.00,,,1.82,weatherlink.com 1.10,2013-06-13 23:02:00,
2013-06-13 19:17:00,73.7,57.0,29.84,NNE,12,2.0,11.0,56,0.00,,,1.82,weatherlink.com 1.10,2013-06-13 23:17:00,
2013-06-13 19:32:00,72.9,55.0,29.85,NE,54,2.0,12.0,53,0.00,,,1.82,weatherlink.com 1.10,2013-06-13 23:32:00,
2013-06-13 19:47:00,72.3,56.0,29.85,West,259,6.0,10.0,57,0.00,,,1.82,weatherlink.com 1.10,2013-06-13 23:47:00,
2013-06-13 20:02:00,70.9,55.0,29.86,NNE,30,4.0,10.0,58,0.00,,,1.82,weatherlink.com 1.10,2013-06-14 00:02:00,
2013-06-13 20:17:00,69.6,56.0,29.86,NW,315,5.0,11.0,63,0.00,,,1.82,weatherlink.com 1.10,2013-06-14 00:17:00,
2013-06-13 20:32:00,68.5,55.0,29.86,WNW,287,6.0,16.0,63,0.00,,,1.82,weatherlink.com 1.10,2013-06-14 00:32:00,
2013-06-13 20:47:00,67.7,55.0,29.87,West,271,2.0,15.0,63,0.00,,,1.82,weatherlink.com 1.10,2013-06-14 00:47:00,
2013-06-13 21:02:00,67.1,54.0,29.87,NNW,345,2.0,14.0,63,0.00,,,1.82,weatherlink.com 1.10,2013-06-14 01:02:00,
2013-06-13 21:18:00,66.3,55.0,29.87,WNW,298,3.0,8.0,68,0.00,,,1.82,weatherlink.com 1.10,2013-06-14 01:18:00,
2013-06-13 21:32:00,65.4,55.0,29.88,North,360,1.0,9.0,69,0.00,,,1.82,weatherlink.com 1.10,2013-06-14 01:32:00,
2013-06-13 21:47:00,64.8,54.0,29.89,West,271,1.0,7.0,69,0.00,,,1.82,weatherlink.com 1.10,2013-06-14 01:47:00,
2013-06-13 22:03:00,64.1,54.0,29.90,WNW,286,3.0,10.0,70,0.00,,,1.82,weatherlink.com 1.10,2013-06-14 02:03:00,
2013-06-13 22:18:00,63.5,54.0,29.90,NNE,25,1.0,5.0,72,0.00,,,1.82,weatherlink.com 1.10,2013-06-14 02:18:00,
2013-06-13 22:33:00,63.0,54.0,29.91,NE,44,0.0,7.0,73,0.00,,,1.82,weatherlink.com 1.10,2013-06-14 02:33:00,
2013-06-13 22:48:00,62.4,54.0,29.91,NW,319,1.0,4.0,75,0.00,,,1.82,weatherlink.com 1.10,2013-06-14 02:48:00,
2013-06-13 23:03:00,61.6,54.0,29.91,NE,47,0.0,0.0,77,0.00,,,1.82,weatherlink.com 1.10,2013-06-14 03:03:00,
2013-06-13 23:18:00,61.2,54.0,29.91,WNW,295,1.0,3.0,78,0.00,,,1.82,weatherlink.com 1.10,2013-06-14 03:18:00,
2013-06-13 23:33:00,60.9,54.0,29.92,West,274,0.0,3.0,79,0.00,,,1.82,weatherlink.com 1.10,2013-06-14 03:33:00,
2013-06-13 23:48:00,60.3,54.0,29.92,WNW,290,0.0,2.0,81,0.00,,,1.82,weatherlink.com 1.10,2013-06-14 03:48:00,